Time;durP1;ratioP1;P1;durP2;ratioP2;P2;SDS_P1;SDS_P2;PMS_P1;PMS_P2;Temp;Humidity;BMP_temperature;BMP_pressure;BME280_temperature;BME280_humidity;BME280_pressure;Samples;Min_cycle;Max_cycle;Signal;HPM_P1;HPM_P2
2021/03/17 00:00:12;;;;;;;6.93;3.50;;;;;;;;;;4993750;28;20399;-67
2021/03/17 00:02:38;;;;;;;4.03;3.30;;;;;;;;;;4986934;28;20411;-69
2021/03/17 00:05:05;;;;;;;4.15;3.10;;;;;;;;;;4994075;28;20418;-68
2021/03/17 00:07:32;;;;;;;4.55;3.33;;;;;;;;;;5009189;28;20509;-67
2021/03/17 00:09:59;;;;;;;5.53;3.58;;;;;;;;;;5005956;28;20411;-66
2021/03/17 00:12:25;;;;;;;3.40;2.75;;;;;;;;;;5009083;28;20410;-67
2021/03/17 00:14:51;;;;;;;3.50;2.70;;;;;;;;;;4993859;28;20418;-66
2021/03/17 00:17:17;;;;;;;3.95;2.97;;;;;;;;;;4991409;28;20894;-67
2021/03/17 00:19:43;;;;;;;4.68;2.97;;;;;;;;;;4993375;28;20425;-68
2021/03/17 00:22:10;;;;;;;4.70;2.90;;;;;;;;;;4993931;28;20829;-67
2021/03/17 00:24:36;;;;;;;4.13;2.97;;;;;;;;;;4993777;28;20398;-67
2021/03/17 00:27:03;;;;;;;4.53;3.03;;;;;;;;;;4993590;28;20492;-67
2021/03/17 00:29:30;;;;;;;5.17;3.40;;;;;;;;;;4993841;28;20498;-67
2021/03/17 00:31:56;;;;;;;5.10;2.72;;;;;;;;;;4994786;28;20406;-67
2021/03/17 00:34:22;;;;;;;4.10;2.78;;;;;;;;;;5012799;28;20438;-67
2021/03/17 00:36:48;;;;;;;4.95;3.38;;;;;;;;;;4999261;28;20400;-67
2021/03/17 00:39:14;;;;;;;3.85;2.60;;;;;;;;;;4993797;28;20489;-67
2021/03/17 00:41:41;;;;;;;3.25;2.40;;;;;;;;;;4993493;28;20535;-67
2021/03/17 00:44:09;;;;;;;3.93;2.87;;;;;;;;;;5008233;28;20831;-67
2021/03/17 00:46:35;;;;;;;4.25;3.22;;;;;;;;;;4994320;28;20457;-68
2021/03/17 00:49:01;;;;;;;5.90;2.95;;;;;;;;;;5010221;28;21232;-67
2021/03/17 00:51:28;;;;;;;4.33;2.97;;;;;;;;;;4993536;28;20430;-67
2021/03/17 00:53:54;;;;;;;5.95;3.60;;;;;;;;;;4993015;28;20509;-67
2021/03/17 00:56:20;;;;;;;6.78;4.35;;;;;;;;;;4992082;28;20747;-67
2021/03/17 00:58:46;;;;;;;7.45;4.25;;;;;;;;;;4989150;28;20429;-67
2021/03/17 01:01:13;;;;;;;7.72;5.03;;;;;;;;;;5007996;28;20406;-67
2021/03/17 01:03:39;;;;;;;8.80;5.18;;;;;;;;;;4992771;28;20413;-67
2021/03/17 01:06:05;;;;;;;7.50;4.28;;;;;;;;;;4992848;28;20398;-67
2021/03/17 01:08:32;;;;;;;9.73;5.30;;;;;;;;;;4992964;28;20953;-67
2021/03/17 01:10:58;;;;;;;8.13;4.85;;;;;;;;;;4992908;28;20878;-67
2021/03/17 01:13:25;;;;;;;8.02;4.50;;;;;;;;;;4992890;28;20426;-67
2021/03/17 01:15:51;;;;;;;7.22;4.40;;;;;;;;;;4992933;28;20403;-67
2021/03/17 01:18:18;;;;;;;7.32;4.47;;;;;;;;;;5007898;28;20403;-67
2021/03/17 01:20:44;;;;;;;6.50;3.80;;;;;;;;;;4993052;28;20963;-68
2021/03/17 01:23:10;;;;;;;5.35;3.50;;;;;;;;;;4992652;28;20460;-67
2021/03/17 01:25:38;;;;;;;6.32;3.33;;;;;;;;;;4986479;28;20492;-68
2021/03/17 01:28:05;;;;;;;5.68;3.22;;;;;;;;;;4985774;28;20984;-68
2021/03/17 01:30:36;;;;;;;7.07;3.80;;;;;;;;;;4992715;28;20413;-67
2021/03/17 01:33:03;;;;;;;5.90;3.75;;;;;;;;;;5001907;28;20445;-68
2021/03/17 01:35:30;;;;;;;6.45;4.05;;;;;;;;;;5007615;28;20402;-68
2021/03/17 01:37:57;;;;;;;5.55;3.85;;;;;;;;;;4992561;28;20413;-68
2021/03/17 01:40:24;;;;;;;8.60;4.47;;;;;;;;;;4992573;28;20408;-67
2021/03/17 01:42:50;;;;;;;7.28;4.30;;;;;;;;;;4992938;28;20398;-67
2021/03/17 01:45:17;;;;;;;9.23;4.50;;;;;;;;;;4992408;28;20414;-67
2021/03/17 01:47:44;;;;;;;8.13;4.32;;;;;;;;;;4992129;28;20465;-67
2021/03/17 01:50:12;;;;;;;7.47;4.53;;;;;;;;;;4992402;28;20432;-67
2021/03/17 01:52:39;;;;;;;6.68;4.53;;;;;;;;;;4992361;28;20535;-67
2021/03/17 01:55:06;;;;;;;7.05;4.78;;;;;;;;;;4992357;28;20432;-67
2021/03/17 01:57:32;;;;;;;8.40;4.55;;;;;;;;;;4991033;28;20410;-67
2021/03/17 01:59:59;;;;;;;8.30;3.97;;;;;;;;;;4992332;28;20410;-67
2021/03/17 02:02:25;;;;;;;5.78;3.28;;;;;;;;;;5008623;22;20436;-70
2021/03/17 02:04:51;;;;;;;6.50;4.15;;;;;;;;;;5006202;28;20873;-70
2021/03/17 02:07:17;;;;;;;10.70;4.47;;;;;;;;;;4997059;28;20403;-70
2021/03/17 02:09:44;;;;;;;6.25;4.10;;;;;;;;;;5008793;28;20832;-70
2021/03/17 02:12:16;;;;;;;5.80;4.20;;;;;;;;;;4999089;28;20410;-71
2021/03/17 02:14:49;;;;;;;5.70;4.40;;;;;;;;;;5007026;28;20915;-71
2021/03/17 02:17:17;;;;;;;9.90;5.00;;;;;;;;;;5000126;28;20766;-71
2021/03/17 02:20:03;;;;;;;6.70;4.82;;;;;;;;;;5002024;28;20404;-71
2021/03/17 02:22:33;;;;;;;6.45;4.25;;;;;;;;;;5013469;28;20404;-69
2021/03/17 02:25:02;;;;;;;7.57;4.47;;;;;;;;;;5007722;28;20409;-71
2021/03/17 02:27:47;;;;;;;6.68;3.75;;;;;;;;;;5001763;28;20809;-71
2021/03/17 02:30:37;;;;;;;6.35;4.25;;;;;;;;;;5010667;28;20495;-71
2021/03/17 02:33:28;;;;;;;5.20;3.60;;;;;;;;;;4994629;28;20400;-71
2021/03/17 02:36:00;;;;;;;5.78;3.90;;;;;;;;;;5001570;28;20395;-71
2021/03/17 02:38:27;;;;;;;5.65;3.50;;;;;;;;;;5011837;28;20405;-71
2021/03/17 02:40:54;;;;;;;6.25;3.60;;;;;;;;;;5012715;28;20524;-71
2021/03/17 02:43:23;;;;;;;5.75;4.00;;;;;;;;;;5008108;28;20454;-70
2021/03/17 02:45:52;;;;;;;6.43;3.88;;;;;;;;;;5008682;28;20430;-71
2021/03/17 02:48:22;;;;;;;4.88;3.33;;;;;;;;;;4997634;28;20888;-70
2021/03/17 02:50:48;;;;;;;5.38;3.80;;;;;;;;;;5003417;28;20413;-70
2021/03/17 02:53:18;;;;;;;5.78;3.53;;;;;;;;;;5005869;28;20488;-71
2021/03/17 02:55:46;;;;;;;4.80;3.67;;;;;;;;;;5013475;28;20404;-71
2021/03/17 02:58:13;;;;;;;4.53;3.40;;;;;;;;;;5004539;28;20402;-71
2021/03/17 03:00:40;;;;;;;4.82;3.53;;;;;;;;;;5007481;28;20438;-71
2021/03/17 03:03:06;;;;;;;6.50;3.92;;;;;;;;;;5004759;28;20413;-71
2021/03/17 03:05:33;;;;;;;5.38;4.13;;;;;;;;;;5014820;28;20423;-71
2021/03/17 03:08:00;;;;;;;5.28;4.00;;;;;;;;;;5013552;28;20963;-71
2021/03/17 03:10:28;;;;;;;6.13;4.00;;;;;;;;;;5014605;28;20397;-71
2021/03/17 03:12:55;;;;;;;5.07;3.42;;;;;;;;;;5015018;28;20404;-71
2021/03/17 03:15:22;;;;;;;6.32;3.22;;;;;;;;;;5006832;28;20425;-71
2021/03/17 03:17:48;;;;;;;4.97;3.80;;;;;;;;;;5014536;28;20400;-72
2021/03/17 03:20:17;;;;;;;5.47;3.50;;;;;;;;;;5013489;28;20823;-71
2021/03/17 03:22:44;;;;;;;7.82;4.20;;;;;;;;;;5011520;28;20477;-72
2021/03/17 03:25:10;;;;;;;5.38;3.70;;;;;;;;;;5014621;28;20397;-71
2021/03/17 03:27:38;;;;;;;4.90;3.25;;;;;;;;;;5014245;28;20404;-70
2021/03/17 03:30:06;;;;;;;6.53;4.10;;;;;;;;;;5009398;28;20810;-71
2021/03/17 03:32:33;;;;;;;5.77;3.53;;;;;;;;;;5014204;28;20403;-71
2021/03/17 03:34:59;;;;;;;4.27;3.57;;;;;;;;;;5011604;28;21029;-71
2021/03/17 03:37:26;;;;;;;4.85;3.25;;;;;;;;;;5014369;28;20471;-72
2021/03/17 03:39:52;;;;;;;5.75;3.60;;;;;;;;;;5014436;28;20397;-71
2021/03/17 03:42:18;;;;;;;3.80;3.20;;;;;;;;;;5013129;28;20400;-71
2021/03/17 03:44:45;;;;;;;5.47;3.53;;;;;;;;;;5012835;28;20407;-71
2021/03/17 03:47:11;;;;;;;6.97;3.53;;;;;;;;;;5012844;28;20400;-71
2021/03/17 03:49:38;;;;;;;3.90;2.88;;;;;;;;;;5012738;28;20447;-72
2021/03/17 03:52:06;;;;;;;5.60;3.42;;;;;;;;;;5014173;28;20401;-72
2021/03/17 03:54:38;;;;;;;4.38;3.03;;;;;;;;;;5013164;28;21054;-72
2021/03/17 03:57:09;;;;;;;4.53;2.93;;;;;;;;;;5011469;28;20406;-72
2021/03/17 03:59:38;;;;;;;4.60;2.88;;;;;;;;;;5010615;28;20418;-73
2021/03/17 04:02:08;;;;;;;5.55;3.20;;;;;;;;;;5006769;28;20418;-73
2021/03/17 04:04:37;;;;;;;5.15;2.88;;;;;;;;;;5013507;28;20434;-73
2021/03/17 04:07:04;;;;;;;4.28;2.70;;;;;;;;;;5013759;28;20408;-73
2021/03/17 04:09:32;;;;;;;4.13;2.87;;;;;;;;;;5013835;28;20800;-73
2021/03/17 04:11:59;;;;;;;4.38;2.65;;;;;;;;;;5011410;28;20435;-73
2021/03/17 04:14:26;;;;;;;4.03;2.55;;;;;;;;;;5008857;28;20427;-73
2021/03/17 04:16:53;;;;;;;3.22;2.85;;;;;;;;;;5007968;28;20408;-73
2021/03/17 04:19:21;;;;;;;3.88;2.63;;;;;;;;;;5013247;28;20397;-73
2021/03/17 04:21:47;;;;;;;2.95;2.55;;;;;;;;;;5013525;28;20446;-73
2021/03/17 04:24:14;;;;;;;4.07;2.63;;;;;;;;;;5013326;28;20431;-73
2021/03/17 04:26:43;;;;;;;3.10;2.30;;;;;;;;;;5008517;28;20487;-73
2021/03/17 04:29:09;;;;;;;5.07;2.75;;;;;;;;;;5013205;28;20864;-73
2021/03/17 04:31:36;;;;;;;3.72;2.30;;;;;;;;;;5012114;28;20411;-73
2021/03/17 04:34:02;;;;;;;3.00;2.40;;;;;;;;;;5013202;28;20428;-73
2021/03/17 04:36:31;;;;;;;4.50;2.63;;;;;;;;;;5012064;28;20400;-73
2021/03/17 04:38:57;;;;;;;3.83;2.45;;;;;;;;;;5013126;28;20436;-73
2021/03/17 04:41:24;;;;;;;2.85;2.13;;;;;;;;;;5012898;28;20872;-73
2021/03/17 04:43:50;;;;;;;5.00;2.92;;;;;;;;;;5011909;28;20489;-73
2021/03/17 04:46:16;;;;;;;3.25;2.35;;;;;;;;;;5011223;28;20460;-73
2021/03/17 04:48:43;;;;;;;4.10;2.75;;;;;;;;;;5008716;28;20538;-73
2021/03/17 04:51:10;;;;;;;3.83;2.42;;;;;;;;;;5008458;28;20495;-73
2021/03/17 04:53:38;;;;;;;3.05;2.35;;;;;;;;;;5006424;28;20756;-73
2021/03/17 04:56:05;;;;;;;4.57;2.63;;;;;;;;;;5006865;28;20803;-73
2021/03/17 04:58:32;;;;;;;3.92;2.55;;;;;;;;;;5007202;28;20406;-73
2021/03/17 05:01:00;;;;;;;3.40;2.60;;;;;;;;;;5012378;28;20863;-73
2021/03/17 05:03:26;;;;;;;3.87;3.00;;;;;;;;;;5008005;28;20925;-73
2021/03/17 05:05:54;;;;;;;4.00;3.05;;;;;;;;;;5008296;28;20414;-73
2021/03/17 05:08:21;;;;;;;4.85;3.28;;;;;;;;;;5026823;28;20409;-73
2021/03/17 05:10:48;;;;;;;4.97;3.20;;;;;;;;;;5005527;28;20451;-73
2021/03/17 05:13:15;;;;;;;5.40;3.30;;;;;;;;;;5011519;28;20888;-73
2021/03/17 05:15:42;;;;;;;4.38;2.95;;;;;;;;;;5006325;28;20413;-73
2021/03/17 05:18:09;;;;;;;4.03;3.00;;;;;;;;;;5011123;28;20459;-73
2021/03/17 05:20:36;;;;;;;4.55;3.22;;;;;;;;;;5012390;28;20895;-73
2021/03/17 05:23:02;;;;;;;4.57;3.25;;;;;;;;;;5012530;28;20492;-73
2021/03/17 05:25:29;;;;;;;6.38;4.10;;;;;;;;;;5012673;28;20524;-73
2021/03/17 05:28:04;;;;;;;6.57;3.90;;;;;;;;;;5012218;28;20400;-73
2021/03/17 05:30:31;;;;;;;6.05;4.22;;;;;;;;;;5011202;28;20413;-73
2021/03/17 05:32:57;;;;;;;6.03;3.22;;;;;;;;;;5012051;28;20428;-73
2021/03/17 05:35:25;;;;;;;4.93;3.53;;;;;;;;;;5012279;28;20892;-73
2021/03/17 05:37:51;;;;;;;4.60;3.47;;;;;;;;;;5011976;28;20408;-73
2021/03/17 05:40:18;;;;;;;4.72;2.75;;;;;;;;;;5012215;28;20408;-73
2021/03/17 05:42:44;;;;;;;5.90;3.60;;;;;;;;;;5010907;28;20492;-73
2021/03/17 05:45:13;;;;;;;5.82;3.55;;;;;;;;;;5011052;28;20424;-73
2021/03/17 05:47:40;;;;;;;4.28;3.28;;;;;;;;;;5011977;28;20405;-73
2021/03/17 05:50:08;;;;;;;6.05;3.67;;;;;;;;;;5010643;28;20428;-73
2021/03/17 05:52:34;;;;;;;7.13;4.10;;;;;;;;;;5011533;28;20401;-73
2021/03/17 05:55:01;;;;;;;6.47;4.35;;;;;;;;;;5007246;28;20426;-73
2021/03/17 05:57:29;;;;;;;7.80;5.45;;;;;;;;;;5010282;28;20400;-73
2021/03/17 05:59:56;;;;;;;5.30;4.05;;;;;;;;;;5007302;28;20446;-73
2021/03/17 06:02:23;;;;;;;7.15;3.70;;;;;;;;;;5009987;28;20435;-73
2021/03/17 06:04:50;;;;;;;5.53;3.85;;;;;;;;;;5011159;28;20580;-71
2021/03/17 06:07:22;;;;;;;6.47;4.30;;;;;;;;;;5011306;28;20400;-71
2021/03/17 06:09:49;;;;;;;5.13;3.70;;;;;;;;;;5008269;28;20477;-73
2021/03/17 06:12:16;;;;;;;4.93;3.47;;;;;;;;;;5010093;28;20408;-73
2021/03/17 06:14:43;;;;;;;6.20;3.83;;;;;;;;;;5013460;28;20516;-73
2021/03/17 06:17:12;;;;;;;6.30;4.00;;;;;;;;;;5010802;28;20400;-73
2021/03/17 06:19:40;;;;;;;6.05;3.75;;;;;;;;;;5009926;28;20481;-73
2021/03/17 06:22:08;;;;;;;6.20;3.70;;;;;;;;;;5010228;28;21440;-73
2021/03/17 06:24:35;;;;;;;6.30;3.33;;;;;;;;;;5011967;28;20404;-73
2021/03/17 06:27:02;;;;;;;5.10;4.05;;;;;;;;;;5006897;28;20418;-73
2021/03/17 06:29:28;;;;;;;5.50;3.75;;;;;;;;;;5011033;28;20400;-73
2021/03/17 06:31:54;;;;;;;5.18;3.45;;;;;;;;;;5008288;28;20410;-74
2021/03/17 06:34:21;;;;;;;4.03;3.15;;;;;;;;;;5009187;28;20420;-73
2021/03/17 06:36:48;;;;;;;4.22;3.40;;;;;;;;;;5008973;28;20888;-73
2021/03/17 06:39:15;;;;;;;5.72;3.50;;;;;;;;;;5011698;28;20483;-73
2021/03/17 06:41:42;;;;;;;7.22;3.50;;;;;;;;;;5011520;28;20447;-73
2021/03/17 06:44:09;;;;;;;4.35;3.25;;;;;;;;;;5009898;28;20829;-73
2021/03/17 06:46:35;;;;;;;6.53;3.30;;;;;;;;;;5010746;28;20408;-73
2021/03/17 06:49:01;;;;;;;4.88;3.22;;;;;;;;;;5010094;28;20405;-73
2021/03/17 06:51:29;;;;;;;5.00;2.72;;;;;;;;;;5009912;28;20419;-73
2021/03/17 06:53:57;;;;;;;5.22;3.50;;;;;;;;;;5010031;28;20420;-73
2021/03/17 06:56:26;;;;;;;7.45;4.55;;;;;;;;;;5010440;28;20417;-73
2021/03/17 06:58:53;;;;;;;8.55;3.70;;;;;;;;;;5009632;28;20453;-73
2021/03/17 07:01:23;;;;;;;6.60;3.13;;;;;;;;;;5009611;28;20745;-73
2021/03/17 07:03:53;;;;;;;6.70;3.60;;;;;;;;;;5010923;28;20524;-73
2021/03/17 07:06:19;;;;;;;6.80;3.45;;;;;;;;;;5013017;28;20401;-73
2021/03/17 07:08:45;;;;;;;6.35;3.15;;;;;;;;;;5013512;28;20404;-73
2021/03/17 07:11:12;;;;;;;7.53;4.90;;;;;;;;;;5014321;28;20493;-73
2021/03/17 07:13:40;;;;;;;6.28;3.88;;;1.70;97.30;;;;;;5014502;28;20960;-73
2021/03/17 07:16:06;;;;;;;5.27;2.77;;;;;;;;;;5012930;28;20542;-73
2021/03/17 07:18:33;;;;;;;5.75;2.55;;;;;;;;;;5011712;28;20412;-73
2021/03/17 07:21:00;;;;;;;4.30;2.50;;;;;;;;;;5007603;28;20409;-72
2021/03/17 07:23:33;;;;;;;3.45;2.38;;;;;;;;;;5000751;28;20448;-73
2021/03/17 07:26:17;;;;;;;5.70;1.75;;;;;;;;;;5008781;28;20401;-73
2021/03/17 07:28:51;;;;;;;3.88;1.60;;;;;;;;;;5010948;28;20404;-73
2021/03/17 07:31:19;;;;;;;2.70;1.50;;;3.30;95.00;;;;;;5009183;28;20563;-73
2021/03/17 07:33:45;;;;;;;2.97;1.50;;;4.70;85.00;;;;;;5010724;28;20428;-72
2021/03/17 07:36:12;;;;;;;3.10;1.80;;;;;;;;;;5011600;28;20841;-72
2021/03/17 07:38:38;;;;;;;3.63;1.70;;;;;;;;;;5009880;28;20411;-71
2021/03/17 07:41:05;;;;;;;1.73;1.25;;;5.70;78.40;;;;;;5009561;28;20525;-72
2021/03/17 07:43:31;;;;;;;2.70;1.38;;;6.40;72.80;;;;;;5010057;28;20961;-72
2021/03/17 07:45:59;;;;;;;5.38;1.58;;;6.50;70.10;;;;;;5010785;28;20396;-71
2021/03/17 07:48:27;;;;;;;3.22;1.48;;;;;;;;;;5010144;28;20424;-72
2021/03/17 07:50:54;;;;;;;3.50;1.73;;;6.80;68.30;;;;;;5011239;28;20423;-72
2021/03/17 07:53:23;;;;;;;2.65;1.10;;;7.30;66.80;;;;;;5022767;28;20506;-71
2021/03/17 07:55:49;;;;;;;2.37;1.50;;;7.50;64.20;;;;;;5028361;28;21268;-72
2021/03/17 07:58:16;;;;;;;2.38;1.25;;;;;;;;;;5030328;28;20461;-72
2021/03/17 08:00:43;;;;;;;2.28;1.08;;;7.90;61.80;;;;;;5030225;28;20894;-73
2021/03/17 08:03:12;;;;;;;2.03;1.10;;;8.30;56.90;;;;;;5028930;28;20415;-72
2021/03/17 08:05:39;;;;;;;2.85;1.48;;;8.30;57.30;;;;;;5023542;28;20485;-73
2021/03/17 08:08:06;;;;;;;2.88;1.25;;;8.60;56.70;;;;;;5029816;28;20422;-72
2021/03/17 08:10:32;;;;;;;2.15;1.00;;;;;;;;;;5045523;28;20941;-72
2021/03/17 08:12:59;;;;;;;1.58;1.00;;;8.90;56.50;;;;;;5031116;28;20497;-72
2021/03/17 08:15:25;;;;;;;1.75;1.00;;;9.50;57.50;;;;;;5025695;28;20415;-72
2021/03/17 08:17:51;;;;;;;2.08;1.02;;;9.80;52.80;;;;;;5028859;28;20427;-73
2021/03/17 08:20:23;;;;;;;3.08;1.27;;;10.00;51.80;;;;;;5028878;28;20766;-73
2021/03/17 08:22:51;;;;;;;4.67;1.20;;;10.00;51.70;;;;;;5027671;28;20985;-72
2021/03/17 08:25:37;;;;;;;3.70;1.00;;;10.10;50.10;;;;;;5030215;28;20394;-72
2021/03/17 08:28:16;;;;;;;2.58;1.40;;;10.30;46.80;;;;;;5028677;28;20450;-72
2021/03/17 08:30:42;;;;;;;3.42;1.10;;;10.50;47.40;;;;;;5025603;28;20415;-72
2021/03/17 08:33:07;;;;;;;3.22;2.00;;;10.70;47.20;;;;;;5029492;28;20399;-72
2021/03/17 08:35:54;;;;;;;5.20;2.40;;;;;;;;;;5025116;28;20422;-72
2021/03/17 08:38:21;;;;;;;6.95;2.15;;;11.10;49.70;;;;;;5029783;28;20449;-72
2021/03/17 08:40:48;;;;;;;4.50;2.40;;;11.20;50.10;;;;;;5029508;28;20403;-72
2021/03/17 08:43:42;;;;;;;3.15;1.30;;;11.40;47.50;;;;;;5027352;28;20410;-72
2021/03/17 08:46:10;;;;;;;4.32;1.33;;;11.40;48.30;;;;;;5026042;28;20502;-73
2021/03/17 08:49:00;;;;;;;3.23;1.40;;;11.80;45.60;;;;;;5028384;28;20558;-72
2021/03/17 08:52:02;;;;;;;2.00;0.95;;;12.00;44.10;;;;;;5031386;28;20441;-73
2021/03/17 09:04:47;;;;;;;1.27;0.60;;;12.30;39.40;;;;;;5012937;28;20474;-74
2021/03/17 09:07:13;;;;;;;1.42;0.50;;;12.20;38.90;;;;;;5021848;28;20418;-72
2021/03/17 09:09:50;;;;;;;0.80;0.50;;;12.10;38.10;;;;;;5027150;28;20421;-73
2021/03/17 09:12:17;;;;;;;1.20;0.60;;;12.00;37.30;;;;;;5026581;28;20444;-72
2021/03/17 09:14:43;;;;;;;2.15;0.80;;;12.00;39.10;;;;;;5027756;28;20426;-74
2021/03/17 09:17:25;;;;;;;1.63;0.57;;;12.10;38.30;;;;;;5029309;28;20391;-72
2021/03/17 09:20:09;;;;;;;2.00;0.83;;;12.20;37.00;;;;;;5028009;28;20755;-72
2021/03/17 09:22:42;;;;;;;2.40;0.50;;;12.40;38.80;;;;;;5028210;28;20564;-72
2021/03/17 09:25:25;;;;;;;1.90;0.50;;;12.50;37.90;;;;;;5028886;28;20402;-72
2021/03/17 09:27:55;;;;;;;1.85;0.70;;;12.60;37.10;;;;;;5027681;28;20482;-72
2021/03/17 09:30:23;;;;;;;1.90;0.60;;;12.70;37.00;;;;;;5029246;28;20388;-72
2021/03/17 09:32:50;;;;;;;1.25;0.65;;;12.90;37.50;;;;;;5029371;28;20398;-72
2021/03/17 09:35:17;;;;;;;0.80;0.30;;;13.00;36.10;;;;;;5026527;28;20438;-72
2021/03/17 09:37:44;;;;;;;1.60;0.28;;;13.20;33.90;;;;;;5027921;28;20396;-72
2021/03/17 09:40:15;;;;;;;1.45;0.30;;;13.00;33.70;;;;;;5029387;28;20423;-73
2021/03/17 09:42:41;;;;;;;0.43;0.20;;;13.10;34.40;;;;;;5029387;28;20414;-72
2021/03/17 09:45:09;;;;;;;0.80;0.20;;;13.30;33.90;;;;;;5026768;28;20908;-71
2021/03/17 09:47:35;;;;;;;0.60;0.30;;;13.40;32.80;;;;;;5027731;28;20414;-72
2021/03/17 09:50:02;;;;;;;0.47;0.20;;;13.20;32.50;;;;;;5028070;28;20486;-72
2021/03/17 09:52:29;;;;;;;0.75;0.30;;;13.00;34.10;;;;;;5028708;28;20479;-71
2021/03/17 09:54:55;;;;;;;0.57;0.30;;;13.00;33.10;;;;;;5025953;28;20447;-73
2021/03/17 09:57:23;;;;;;;0.30;0.13;;;12.80;33.70;;;;;;5026360;28;20467;-73
2021/03/17 09:59:49;;;;;;;0.85;0.20;;;12.90;33.00;;;;;;5029050;28;20410;-72
2021/03/17 10:02:19;;;;;;;0.97;0.20;;;12.90;33.20;;;;;;5027999;28;20444;-73
2021/03/17 10:04:48;;;;;;;0.52;0.20;;;12.90;33.10;;;;;;5026312;28;20418;-72
2021/03/17 10:07:16;;;;;;;0.40;0.30;;;13.00;34.00;;;;;;5028025;28;20390;-73
2021/03/17 10:09:43;;;;;;;0.30;0.10;;;13.30;35.90;;;;;;5028465;28;20402;-73
2021/03/17 10:12:13;;;;;;;0.70;0.10;;;13.20;33.50;;;;;;5026859;28;20461;-73
2021/03/17 10:14:43;;;;;;;0.98;0.10;;;13.50;32.70;;;;;;5028151;28;20469;-71
2021/03/17 10:17:09;;;;;;;0.70;0.10;;;13.50;30.20;;;;;;5027627;28;20411;-71
2021/03/17 10:19:37;;;;;;;1.23;0.10;;;13.20;31.80;;;;;;5028022;28;20434;-72
2021/03/17 10:22:04;;;;;;;0.20;0.10;;;13.30;32.30;;;;;;5028675;28;20396;-72
2021/03/17 10:24:33;;;;;;;0.40;0.10;;;13.50;32.90;;;;;;5026748;28;20490;-73
2021/03/17 10:27:01;;;;;;;0.20;0.10;;;13.70;31.20;;;;;;5027675;28;20728;-72
2021/03/17 10:29:27;;;;;;;0.68;0.20;;;13.40;29.90;;;;;;5029237;28;20456;-72
2021/03/17 10:31:56;;;;;;;0.45;0.30;;;13.50;32.50;;;;;;5026404;28;20460;-72
2021/03/17 10:34:25;;;;;;;0.47;0.20;;;13.60;29.90;;;;;;5026407;28;20422;-72
2021/03/17 10:36:52;;;;;;;0.40;0.30;;;13.60;33.70;;;;;;5021254;28;20415;-72
2021/03/17 10:39:23;;;;;;;0.30;0.20;;;14.00;31.90;;;;;;5028041;28;20411;-72
2021/03/17 10:41:49;;;;;;;0.77;0.40;;;13.80;30.00;;;;;;5030270;28;20395;-72
2021/03/17 10:44:18;;;;;;;0.70;0.10;;;13.80;31.80;;;;;;5032026;28;20383;-72
2021/03/17 10:47:02;;;;;;;1.17;0.20;;;13.70;30.90;;;;;;5030845;28;20766;-72
2021/03/17 10:49:29;;;;;;;1.00;0.30;;;13.80;33.00;;;;;;5030855;28;20474;-72
2021/03/17 10:51:56;;;;;;;0.28;0.13;;;14.00;31.40;;;;;;5031826;28;20743;-72
2021/03/17 10:54:44;;;;;;;0.30;0.20;;;13.70;29.90;;;;;;5031374;28;20415;-72
2021/03/17 10:57:18;;;;;;;0.20;0.20;;;13.60;31.40;;;;;;5025973;28;20414;-71
2021/03/17 10:59:45;;;;;;;2.50;0.22;;;14.00;31.10;;;;;;5031305;28;20422;-73
2021/03/17 11:02:19;;;;;;;0.30;0.20;;;14.20;31.80;;;;;;5030228;28;20497;-72
2021/03/17 11:05:23;;;;;;;0.47;0.20;;;14.20;32.30;;;;;;5028751;28;20752;-72
2021/03/17 11:07:51;;;;;;;1.77;0.30;;;13.80;31.50;;;;;;5029733;28;20784;-72
2021/03/17 11:10:38;;;;;;;0.77;0.40;;;13.50;31.50;;;;;;5031197;28;20394;-72
2021/03/17 11:13:34;;;;;;;1.08;0.30;;;;;;;;;;5032219;28;20468;-72
2021/03/17 11:16:06;;;;;;;1.00;0.30;;;;;;;;;;4963761;28;20925;-72
2021/03/17 11:18:34;;;;;;;1.05;0.20;;;15.20;29.90;;;;;;5013110;28;20421;-72
2021/03/17 11:21:02;;;;;;;1.15;0.38;;;15.30;29.80;;;;;;5030046;28;20396;-72
2021/03/17 11:23:34;;;;;;;1.42;0.30;;;14.60;32.10;;;;;;5030137;28;21313;-72
2021/03/17 11:26:02;;;;;;;1.13;0.40;;;14.50;31.40;;;;;;5030708;28;20407;-71
2021/03/17 11:28:31;;;;;;;0.50;0.20;;;14.50;30.90;;;;;;5032058;28;20403;-72
2021/03/17 11:30:59;;;;;;;0.50;0.30;;;14.40;32.30;;;;;;5030249;28;20399;-73
2021/03/17 11:33:26;;;;;;;0.38;0.20;;;14.30;32.50;;;;;;5030313;28;20893;-73
2021/03/17 11:35:54;;;;;;;0.32;0.30;;;14.90;30.00;;;;;;5030783;28;20418;-72
2021/03/17 11:38:21;;;;;;;0.88;0.32;;;14.90;29.40;;;;;;5029712;28;20928;-73
2021/03/17 11:40:47;;;;;;;1.15;0.38;;;14.30;30.40;;;;;;5029909;28;20447;-72
2021/03/17 11:43:15;;;;;;;1.00;0.30;;;14.50;32.20;;;;;;5030763;28;20892;-72
2021/03/17 11:45:43;;;;;;;0.53;0.30;;;14.80;31.20;;;;;;5030942;28;20398;-73
2021/03/17 11:48:09;;;;;;;0.93;0.40;;;15.40;29.60;;;;;;5031282;28;20395;-72
2021/03/17 11:50:39;;;;;;;0.40;0.30;;;;;;;;;;5028479;28;20824;-73
2021/03/17 11:53:06;;;;;;;2.13;0.30;;;;;;;;;;5031314;28;20407;-73
2021/03/17 11:55:32;;;;;;;0.43;0.40;;;;;;;;;;5031521;28;20921;-74
2021/03/17 11:57:58;;;;;;;0.43;0.30;;;;;;;;;;5029968;28;20438;-72
2021/03/17 12:00:24;;;;;;;0.95;0.40;;;;;;;;;;5030798;28;20407;-72
2021/03/17 12:02:51;;;;;;;0.88;0.35;;;;;;;;;;5029607;28;20894;-71
2021/03/17 12:05:18;;;;;;;0.50;0.40;;;15.60;29.70;;;;;;5029701;28;20473;-72
2021/03/17 12:07:46;;;;;;;1.90;0.37;;;;;;;;;;5029232;28;20425;-71
2021/03/17 12:10:12;;;;;;;0.60;0.40;;;;;;;;;;5028127;28;20411;-72
2021/03/17 12:12:39;;;;;;;0.70;0.30;;;;;;;;;;5020217;28;20496;-71
2021/03/17 12:15:06;;;;;;;1.00;0.30;;;;;;;;;;5029688;28;20497;-71
2021/03/17 12:17:33;;;;;;;0.52;0.40;;;;;;;;;;5028520;28;20811;-71
2021/03/17 12:20:00;;;;;;;0.57;0.30;;;;;;;;;;5019285;28;20410;-74
2021/03/17 12:22:27;;;;;;;1.50;0.30;;;14.90;29.50;;;;;;5021458;28;20443;-72
2021/03/17 12:24:55;;;;;;;0.60;0.30;;;14.50;31.20;;;;;;5029423;28;20885;-72
2021/03/17 12:27:21;;;;;;;0.60;0.30;;;14.00;29.60;;;;;;5029046;28;20435;-72
2021/03/17 12:29:47;;;;;;;0.90;0.30;;;14.10;30.00;;;;;;5027433;28;20462;-72
2021/03/17 12:32:13;;;;;;;0.35;0.30;;;14.30;30.50;;;;;;5023193;28;20499;-71
2021/03/17 12:34:39;;;;;;;1.08;0.35;;;;;;;;;;5029070;28;20437;-71
2021/03/17 12:37:06;;;;;;;1.15;0.30;;;14.50;31.90;;;;;;5026285;28;20996;-71
2021/03/17 12:39:33;;;;;;;0.45;0.32;;;14.60;30.80;;;;;;5030133;28;20450;-72
2021/03/17 12:42:00;;;;;;;2.35;0.30;;;14.80;30.70;;;;;;5028647;28;20419;-72
2021/03/17 12:44:26;;;;;;;0.75;0.47;;;14.50;30.00;;;;;;5025836;28;20783;-72
2021/03/17 12:46:52;;;;;;;1.10;0.30;;;14.50;32.50;;;;;;5028508;28;20399;-71
2021/03/17 12:49:18;;;;;;;0.40;0.30;;;14.70;30.80;;;;;;5028781;28;20403;-71
2021/03/17 12:51:44;;;;;;;0.97;0.30;;;14.80;32.80;;;;;;5030291;28;20433;-71
2021/03/17 12:54:10;;;;;;;1.17;0.50;;;14.50;30.40;;;;;;5026882;28;20410;-73
2021/03/17 12:56:36;;;;;;;0.70;0.40;;;14.20;30.00;;;;;;5028889;28;20866;-71
2021/03/17 12:59:03;;;;;;;0.43;0.30;;;13.80;30.60;;;;;;5028577;28;20406;-71
2021/03/17 13:01:29;;;;;;;0.93;0.30;;;13.70;31.40;;;;;;5029709;28;20426;-72
2021/03/17 13:03:55;;;;;;;1.20;0.30;;;13.90;31.00;;;;;;5029677;28;20441;-71
2021/03/17 13:06:21;;;;;;;0.65;0.30;;;14.40;30.00;;;;;;5027492;28;20414;-72
2021/03/17 13:08:47;;;;;;;0.50;0.30;;;14.40;30.70;;;;;;5026883;28;20427;-72
2021/03/17 13:11:14;;;;;;;1.13;0.30;;;14.60;30.90;;;;;;5024810;28;20435;-71
2021/03/17 13:13:41;;;;;;;0.40;0.20;;;;;;;;;;5028498;28;20789;-72
2021/03/17 13:16:08;;;;;;;0.30;0.22;;;;;;;;;;5030786;28;20502;-72
2021/03/17 13:18:34;;;;;;;0.30;0.25;;;;;;;;;;5027883;28;20409;-71
2021/03/17 13:21:00;;;;;;;0.30;0.20;;;;;;;;;;5029044;28;20403;-71
2021/03/17 13:23:27;;;;;;;0.40;0.20;;;;;;;;;;5047423;28;20411;-72
2021/03/17 13:25:53;;;;;;;0.50;0.28;;;;;;;;;;5029460;28;20399;-71
2021/03/17 13:28:19;;;;;;;0.70;0.20;;;14.60;30.40;;;;;;5024391;28;20496;-71
2021/03/17 13:30:49;;;;;;;0.98;0.25;;;14.30;31.10;;;;;;5024710;28;20407;-72
2021/03/17 13:33:16;;;;;;;1.40;0.40;;;14.00;31.40;;;;;;5031808;28;20391;-72
2021/03/17 13:35:42;;;;;;;0.40;0.30;;;14.00;31.80;;;;;;5027357;28;20420;-73
2021/03/17 13:38:10;;;;;;;0.40;0.30;;;14.30;31.30;;;;;;5031819;28;20391;-71
2021/03/17 13:40:36;;;;;;;0.40;0.28;;;;;;;;;;5031005;28;20449;-72
2021/03/17 13:43:02;;;;;;;0.40;0.30;;;;;;;;;;5030333;28;20414;-71
2021/03/17 13:45:31;;;;;;;0.98;0.40;;;;;;;;;;5026587;28;20536;-72
2021/03/17 13:47:57;;;;;;;0.60;0.30;;;;;;;;;;5024318;28;20418;-71
2021/03/17 13:50:25;;;;;;;0.90;0.30;;;;;;;;;;5031042;28;20751;-71
2021/03/17 13:52:51;;;;;;;0.50;0.40;;;;;;;;;;5027400;28;20406;-71
2021/03/17 13:55:18;;;;;;;0.55;0.40;;;;;;;;;;5029712;28;20423;-71
2021/03/17 13:57:44;;;;;;;1.10;0.30;;;;;;;;;;5026250;28;20417;-71
2021/03/17 14:00:11;;;;;;;0.55;0.20;;;;;;;;;;5030409;28;20402;-71
2021/03/17 14:02:37;;;;;;;1.00;0.20;;;;;;;;;;5028103;28;20469;-71
2021/03/17 14:05:04;;;;;;;0.50;0.30;;;;;;;;;;5029982;28;20414;-71
2021/03/17 14:07:31;;;;;;;0.80;0.30;;;14.70;30.20;;;;;;5025340;28;20959;-71
2021/03/17 14:09:57;;;;;;;0.50;0.30;;;;;;;;;;5037855;28;20411;-72
2021/03/17 14:12:23;;;;;;;0.77;0.40;;;;;;;;;;5030971;28;20447;-71
2021/03/17 14:14:50;;;;;;;1.10;0.60;;;;;;;;;;5033185;28;20419;-71